Time;durP1;ratioP1;P1;durP2;ratioP2;P2;SDS_P1;SDS_P2;PMS_P1;PMS_P2;Temp;Humidity;BMP_temperature;BMP_pressure;BME280_temperature;BME280_humidity;BME280_pressure;Samples;Min_cycle;Max_cycle;Signal;HPM_P1;HPM_P2
2022/08/13 00:01:15;;;;;;;1.00;1.00;;;18.40;52.90;;;;;;5087360;28;21071;-81
2022/08/13 00:03:42;;;;;;;2.00;1.23;;;18.40;52.30;;;;;;5083307;28;21132;-81
2022/08/13 00:06:10;;;;;;;1.33;1.23;;;18.40;53.20;;;;;;5090919;28;20613;-84
2022/08/13 00:08:39;;;;;;;1.57;1.47;;;18.50;52.80;;;;;;5078000;28;20629;-81
2022/08/13 00:12:56;;;;;;;1.47;1.10;;;18.40;52.50;;;;;;5070612;28;20621;-80
2022/08/13 00:13:57;;;;;;;0.90;0.90;;;18.40;52.80;;;;;;5070102;28;21137;-82
2022/08/13 00:16:24;;;;;;;1.37;1.27;;;18.20;53.00;;;;;;5084185;28;21121;-81
2022/08/13 00:18:52;;;;;;;1.00;1.00;;;18.20;53.10;;;;;;5081728;28;21442;-80
2022/08/13 00:21:21;;;;;;;1.13;1.03;;;18.10;53.10;;;;;;5069565;28;21443;-81
2022/08/13 00:23:57;;;;;;;1.53;1.10;;;18.00;53.40;;;;;;5090038;28;20747;-81
2022/08/13 00:26:27;;;;;;;2.43;1.33;;;17.90;53.70;;;;;;5080360;28;20633;-80
2022/08/13 00:28:55;;;;;;;2.40;1.53;;;17.90;54.00;;;;;;5079948;28;20625;-81
2022/08/13 00:31:22;;;;;;;1.37;1.27;;;17.80;54.10;;;;;;5085168;28;20617;-81
2022/08/13 00:33:49;;;;;;;1.13;1.03;;;17.80;53.50;;;;;;5074118;28;20655;-83
2022/08/13 00:36:17;;;;;;;1.43;1.33;;;17.90;53.10;;;;;;5081969;28;20613;-81
2022/08/13 00:38:45;;;;;;;3.07;1.30;;;18.00;53.00;;;;;;5082166;28;21115;-81
2022/08/13 00:41:37;;;;;;;1.07;0.97;;;18.10;53.00;;;;;;5075090;28;20763;-81
2022/08/13 00:44:04;;;;;;;1.13;1.07;;;18.10;53.10;;;;;;5069672;28;20617;-81
2022/08/13 00:46:32;;;;;;;1.00;0.80;;;18.10;53.00;;;;;;5071069;28;20629;-80
2022/08/13 00:49:01;;;;;;;1.47;1.37;;;18.10;54.00;;;;;;5090752;28;21042;-83
2022/08/13 00:51:29;;;;;;;1.37;1.27;;;18.00;53.30;;;;;;5086076;28;20629;-81
2022/08/13 00:54:02;;;;;;;1.13;1.03;;;18.20;53.00;;;;;;5078930;28;20632;-84
2022/08/13 00:56:33;;;;;;;0.77;0.77;;;18.10;53.60;;;;;;5074889;28;21000;-81
2022/08/13 00:59:10;;;;;;;1.27;1.17;;;18.20;53.70;;;;;;5079800;28;20620;-82
2022/08/13 01:01:40;;;;;;;1.33;1.20;;;18.00;54.20;;;;;;5078441;28;21292;-81
2022/08/13 01:04:08;;;;;;;1.17;1.10;;;17.90;53.70;;;;;;5086723;28;20731;-80
2022/08/13 01:06:35;;;;;;;1.37;1.20;;;17.90;53.90;;;;;;5069647;28;20980;-80
2022/08/13 01:09:03;;;;;;;1.50;1.40;;;17.90;54.70;;;;;;5078454;28;20621;-83
2022/08/13 01:11:32;;;;;;;0.93;0.83;;;17.90;54.50;;;;;;5089232;28;21162;-81
2022/08/13 01:14:07;;;;;;;0.90;0.90;;;17.70;54.90;;;;;;5079737;28;20613;-83
2022/08/13 01:16:36;;;;;;;2.00;1.90;;;17.80;54.90;;;;;;5081164;28;20620;-80
2022/08/13 01:19:06;;;;;;;1.80;0.90;;;17.70;55.00;;;;;;5069924;28;20652;-82
2022/08/13 01:21:39;;;;;;;1.17;1.00;;;17.60;55.60;;;;;;5074900;28;21002;-81
2022/08/13 01:24:10;;;;;;;0.93;0.93;;;17.50;55.30;;;;;;5088386;28;20656;-80
2022/08/13 01:26:39;;;;;;;1.27;1.17;;;17.50;56.20;;;;;;5082150;28;20641;-80
2022/08/13 01:29:07;;;;;;;1.10;1.00;;;17.50;56.00;;;;;;5077337;28;20644;-81
2022/08/13 01:31:35;;;;;;;1.30;1.20;;;17.40;56.70;;;;;;5089876;28;21255;-81
2022/08/13 01:34:04;;;;;;;3.70;1.97;;;17.30;56.70;;;;;;5082254;28;20651;-83
2022/08/13 01:36:32;;;;;;;1.80;1.40;;;17.20;56.90;;;;;;5076232;28;20687;-80
2022/08/13 01:39:04;;;;;;;1.10;1.00;;;17.20;57.00;;;;;;5069385;28;20626;-80
2022/08/13 01:41:32;;;;;;;0.80;0.80;;;17.10;57.00;;;;;;5082432;28;21305;-81
2022/08/13 01:44:05;;;;;;;1.20;1.10;;;17.10;57.50;;;;;;5077604;28;21203;-83
2022/08/13 01:50:28;;;;;;;1.00;1.00;;;17.00;57.20;;;;;;5068971;28;20629;-81
2022/08/13 01:52:09;;;;;;;1.17;1.07;;;16.80;57.40;;;;;;5078962;28;20620;-81
2022/08/13 01:54:39;;;;;;;0.97;0.87;;;16.80;57.80;;;;;;5088465;28;20617;-81
2022/08/13 01:57:09;;;;;;;1.30;1.17;;;16.80;57.80;;;;;;5068372;28;20711;-81
2022/08/13 01:59:37;;;;;;;0.80;0.77;;;16.70;59.10;;;;;;5068292;28;20614;-81
2022/08/13 02:02:05;;;;;;;1.10;1.03;;;16.50;59.30;;;;;;5068570;28;21281;-81
2022/08/13 02:04:33;;;;;;;1.00;1.00;;;16.60;60.20;;;;;;5067780;28;21007;-82
2022/08/13 02:07:01;;;;;;;1.03;0.93;;;16.60;60.20;;;;;;5068690;28;20609;-82
2022/08/13 02:09:28;;;;;;;2.07;1.17;;;16.60;59.40;;;;;;5067911;28;20621;-83
2022/08/13 02:11:56;;;;;;;1.30;1.17;;;16.60;59.10;;;;;;5067958;28;20613;-82
2022/08/13 02:14:34;;;;;;;1.37;1.27;;;16.50;59.20;;;;;;5068470;28;20614;-83
2022/08/13 02:17:24;;;;;;;1.40;1.30;;;16.50;59.30;;;;;;5068998;28;20728;-82
2022/08/13 02:19:53;;;;;;;1.50;1.40;;;16.40;59.90;;;;;;5068771;28;20709;-82
2022/08/13 02:22:20;;;;;;;1.00;1.00;;;16.20;61.00;;;;;;5065842;28;20711;-82
2022/08/13 02:24:52;;;;;;;2.07;1.80;;;16.10;62.20;;;;;;5077662;28;20652;-83
2022/08/13 02:27:26;;;;;;;0.87;0.87;;;16.10;62.00;;;;;;5088614;28;20618;-83
2022/08/13 02:29:55;;;;;;;1.37;1.20;;;16.20;61.80;;;;;;5071415;28;21176;-83
2022/08/13 02:32:23;;;;;;;1.23;1.13;;;16.00;61.00;;;;;;5075093;28;20723;-83
2022/08/13 02:34:51;;;;;;;1.07;0.97;;;16.10;62.10;;;;;;5084866;28;20693;-82
2022/08/13 02:37:21;;;;;;;1.73;1.27;;;16.20;61.70;;;;;;5087695;28;21274;-82
2022/08/13 02:39:49;;;;;;;2.30;1.57;;;16.20;61.10;;;;;;5079270;28;20712;-82
2022/08/13 02:42:15;;;;;;;2.00;1.40;;;16.20;60.30;;;;;;5071814;28;20665;-82
2022/08/13 02:44:48;;;;;;;2.00;1.90;;;16.20;60.00;;;;;;5083420;28;20624;-83
2022/08/13 02:47:15;;;;;;;1.13;1.03;;;16.30;59.40;;;;;;5071724;28;20989;-82
2022/08/13 02:49:42;;;;;;;1.37;1.27;;;16.20;59.60;;;;;;5069375;28;20629;-82
2022/08/13 02:52:10;;;;;;;1.60;1.50;;;16.30;61.00;;;;;;5067810;28;20609;-82
2022/08/13 02:54:40;;;;;;;1.10;1.00;;;16.20;60.60;;;;;;5082695;28;20620;-82
2022/08/13 02:57:07;;;;;;;1.57;1.47;;;16.10;60.80;;;;;;5081379;28;20648;-83
2022/08/13 02:59:34;;;;;;;1.00;1.00;;;16.10;60.70;;;;;;5068086;28;20633;-83
2022/08/13 03:02:05;;;;;;;1.73;1.50;;;16.10;62.00;;;;;;5071584;28;20656;-82
2022/08/13 03:04:32;;;;;;;1.43;1.33;;;16.10;61.80;;;;;;5086667;28;20633;-82
2022/08/13 03:06:59;;;;;;;1.60;1.50;;;15.90;63.20;;;;;;5072787;28;20661;-83
2022/08/13 03:09:25;;;;;;;1.37;1.27;;;15.90;63.70;;;;;;5071418;28;20698;-83
2022/08/13 03:11:52;;;;;;;1.50;1.27;;;15.90;64.00;;;;;;5074244;28;20979;-82
2022/08/13 03:14:37;;;;;;;1.90;1.70;;;15.90;64.20;;;;;;5081303;28;20609;-82
2022/08/13 03:17:05;;;;;;;1.10;1.00;;;15.80;64.70;;;;;;5066332;28;20638;-82
2022/08/13 03:19:32;;;;;;;1.30;1.20;;;15.80;65.10;;;;;;5067173;28;20653;-82
2022/08/13 03:22:01;;;;;;;1.60;1.17;;;15.80;65.30;;;;;;5067823;28;20734;-82
2022/08/13 03:24:28;;;;;;;1.00;0.87;;;15.70;65.80;;;;;;5066391;28;20623;-83
2022/08/13 03:26:55;;;;;;;1.40;1.30;;;15.60;66.50;;;;;;5066339;28;20724;-82
2022/08/13 03:29:24;;;;;;;0.80;0.80;;;15.60;67.50;;;;;;5067619;28;21187;-82
2022/08/13 03:31:51;;;;;;;1.83;1.37;;;15.60;68.00;;;;;;5067007;28;20622;-82
2022/08/13 03:34:20;;;;;;;2.27;1.33;;;15.50;67.30;;;;;;5066003;28;20717;-83
2022/08/13 03:36:47;;;;;;;1.80;1.67;;;15.40;66.70;;;;;;5067503;28;20618;-82
2022/08/13 03:39:14;;;;;;;1.23;1.13;;;15.30;67.10;;;;;;5067834;28;20626;-83
2022/08/13 03:41:41;;;;;;;1.70;1.60;;;15.30;68.00;;;;;;5070842;28;20719;-83
2022/08/13 03:44:08;;;;;;;1.53;1.17;;;15.30;68.90;;;;;;5070691;28;20622;-82
2022/08/13 03:46:35;;;;;;;1.67;1.50;;;15.20;68.80;;;;;;5071641;28;20728;-82
2022/08/13 03:49:03;;;;;;;1.50;1.40;;;15.20;69.10;;;;;;5071554;28;20661;-82
2022/08/13 03:51:31;;;;;;;1.00;0.90;;;15.10;69.80;;;;;;5071550;28;20606;-83
2022/08/13 03:53:59;;;;;;;1.77;1.67;;;15.10;70.00;;;;;;5070169;28;20637;-82
2022/08/13 03:56:26;;;;;;;2.17;2.00;;;15.20;69.90;;;;;;5072609;28;20637;-82
2022/08/13 03:58:53;;;;;;;1.40;1.10;;;15.10;69.90;;;;;;5075179;28;20609;-81
2022/08/13 04:01:20;;;;;;;1.50;1.40;;;15.10;70.20;;;;;;5090083;28;20644;-82
2022/08/13 04:03:47;;;;;;;1.13;0.90;;;15.10;70.40;;;;;;5071782;28;20644;-81
2022/08/13 04:06:16;;;;;;;1.33;1.23;;;15.10;68.00;;;;;;5080311;28;20732;-83
2022/08/13 04:08:47;;;;;;;2.43;1.53;;;15.20;68.50;;;;;;5091010;28;20804;-83
2022/08/13 04:11:16;;;;;;;1.93;1.70;;;15.10;69.60;;;;;;5074265;28;20732;-83
2022/08/13 04:13:43;;;;;;;1.50;1.40;;;15.10;68.70;;;;;;5075048;28;20632;-83
2022/08/13 04:16:13;;;;;;;2.37;1.30;;;15.20;69.50;;;;;;5078915;28;20617;-82
2022/08/13 04:18:41;;;;;;;2.13;1.80;;;15.10;70.70;;;;;;5083156;28;20669;-83
2022/08/13 04:21:10;;;;;;;1.77;1.67;;;15.00;71.70;;;;;;5070518;28;20620;-82
2022/08/13 04:23:39;;;;;;;1.43;1.33;;;14.70;70.00;;;;;;5086747;28;20697;-83
2022/08/13 04:26:09;;;;;;;1.40;1.30;;;14.90;71.10;;;;;;5072471;28;20632;-82
2022/08/13 04:28:38;;;;;;;2.07;1.73;;;14.90;70.10;;;;;;5077100;28;20652;-83
2022/08/13 04:31:05;;;;;;;1.50;1.40;;;15.00;71.60;;;;;;5088964;28;20656;-82
2022/08/13 04:33:34;;;;;;;1.60;1.50;;;14.90;71.90;;;;;;5070337;28;20712;-82
2022/08/13 04:36:01;;;;;;;1.60;1.40;;;14.90;72.90;;;;;;5090216;28;20950;-84
2022/08/13 04:38:27;;;;;;;1.40;1.30;;;14.90;73.50;;;;;;5089735;28;20638;-82
2022/08/13 04:40:54;;;;;;;1.60;1.50;;;14.80;74.00;;;;;;5074970;28;20728;-82
2022/08/13 04:43:23;;;;;;;1.50;1.40;;;14.80;74.00;;;;;;5074623;28;21288;-82
2022/08/13 04:45:50;;;;;;;1.73;1.20;;;14.80;73.50;;;;;;5073695;28;20632;-82
2022/08/13 04:48:17;;;;;;;1.50;1.40;;;14.60;74.40;;;;;;5081311;28;20652;-82
2022/08/13 04:50:46;;;;;;;1.30;1.20;;;14.60;74.50;;;;;;5090428;28;20974;-82
2022/08/13 04:53:23;;;;;;;1.40;1.30;;;14.80;74.80;;;;;;5071170;28;20643;-83
2022/08/13 04:55:50;;;;;;;1.60;1.50;;;14.90;74.50;;;;;;5079087;28;20711;-82
2022/08/13 04:58:18;;;;;;;1.30;1.20;;;14.80;75.60;;;;;;5089811;28;21053;-83
2022/08/13 05:00:46;;;;;;;1.40;1.30;;;14.80;76.00;;;;;;5090118;28;20609;-83
2022/08/13 05:03:15;;;;;;;2.03;1.47;;;14.80;76.60;;;;;;5087541;28;20672;-83
2022/08/13 05:05:43;;;;;;;1.40;1.30;;;14.90;76.70;;;;;;5090045;28;20613;-83
2022/08/13 05:08:11;;;;;;;2.00;1.33;;;14.90;76.40;;;;;;5086879;28;20687;-82
2022/08/13 05:10:39;;;;;;;1.60;1.50;;;15.00;75.20;;;;;;5086804;28;20620;-84
2022/08/13 05:13:19;;;;;;;1.47;1.37;;;15.00;75.60;;;;;;5072041;28;20632;-82
2022/08/13 05:15:47;;;;;;;1.40;1.40;;;15.20;74.40;;;;;;5077625;28;20743;-82
2022/08/13 05:18:15;;;;;;;1.90;1.50;;;15.20;74.90;;;;;;5069228;28;20735;-82
2022/08/13 05:20:42;;;;;;;1.20;1.20;;;15.20;74.70;;;;;;5070096;28;20712;-82
2022/08/13 05:23:10;;;;;;;2.20;1.57;;;15.30;74.60;;;;;;5068989;28;20676;-82
2022/08/13 05:25:37;;;;;;;2.00;1.80;;;15.40;74.30;;;;;;5068933;28;20657;-82
2022/08/13 05:28:04;;;;;;;2.13;1.83;;;15.50;74.10;;;;;;5069229;28;21610;-83
2022/08/13 05:30:31;;;;;;;2.40;1.97;;;15.60;73.70;;;;;;5069444;28;20724;-82
2022/08/13 05:33:00;;;;;;;2.93;1.97;;;15.70;73.00;;;;;;5069225;28;20617;-82
2022/08/13 05:35:27;;;;;;;1.27;1.20;;;15.70;73.10;;;;;;5069663;28;20741;-83
2022/08/13 05:37:54;;;;;;;1.73;1.63;;;15.80;72.60;;;;;;5069305;28;20617;-84
2022/08/13 05:40:23;;;;;;;1.63;1.53;;;15.90;72.60;;;;;;5069930;28;21213;-82
2022/08/13 05:42:50;;;;;;;1.30;1.20;;;16.10;71.80;;;;;;5068808;28;20739;-84
2022/08/13 05:45:16;;;;;;;2.73;2.47;;;16.10;71.00;;;;;;5069664;28;20679;-82
2022/08/13 05:47:46;;;;;;;1.90;1.43;;;16.20;71.50;;;;;;5068958;28;21040;-83
2022/08/13 05:50:15;;;;;;;1.70;1.60;;;16.30;70.30;;;;;;5069104;28;20716;-82
2022/08/13 05:52:42;;;;;;;1.37;1.27;;;16.40;69.80;;;;;;5068454;28;20617;-83
2022/08/13 05:55:11;;;;;;;1.33;1.23;;;16.50;69.50;;;;;;5068791;28;20661;-82
2022/08/13 05:57:38;;;;;;;1.80;1.70;;;16.60;68.70;;;;;;5068697;28;20970;-82
2022/08/13 06:05:40;;;;;;;1.20;1.20;;;16.80;66.80;;;;;;5068849;28;20724;-83
2022/08/13 06:08:07;;;;;;;1.33;1.23;;;16.90;67.40;;;;;;5068661;28;20632;-83
2022/08/13 06:10:35;;;;;;;1.07;0.97;;;17.00;67.20;;;;;;5068368;28;20617;-84
2022/08/13 06:13:02;;;;;;;2.00;1.90;;;17.10;66.50;;;;;;5067980;28;20661;-83
2022/08/13 06:15:30;;;;;;;1.97;1.60;;;17.30;65.10;;;;;;5067982;28;20938;-82
2022/08/13 06:17:59;;;;;;;1.97;1.77;;;17.40;64.40;;;;;;5068087;28;20626;-83
2022/08/13 06:20:27;;;;;;;1.37;1.27;;;17.40;65.10;;;;;;5072521;28;20679;-83
2022/08/13 06:22:57;;;;;;;1.30;1.20;;;17.60;64.70;;;;;;5088512;28;20990;-83
2022/08/13 06:25:24;;;;;;;1.37;1.27;;;17.60;64.50;;;;;;5084428;28;20625;-84
2022/08/13 06:27:52;;;;;;;1.97;1.77;;;17.70;64.30;;;;;;5087246;28;20753;-83
2022/08/13 06:30:19;;;;;;;2.53;1.67;;;17.80;63.90;;;;;;5068261;28;20724;-84
2022/08/13 06:32:46;;;;;;;1.27;1.17;;;17.90;63.90;;;;;;5069443;28;20658;-85
2022/08/13 06:35:13;;;;;;;1.50;1.40;;;18.00;64.10;;;;;;5079405;28;20617;-82
2022/08/13 06:37:45;;;;;;;1.50;1.40;;;18.00;62.80;;;;;;5083743;28;20621;-83
2022/08/13 06:40:16;;;;;;;1.57;1.47;;;18.00;61.80;;;;;;5066073;28;20617;-83
2022/08/13 06:42:44;;;;;;;1.40;1.30;;;18.20;62.60;;;;;;5083661;28;20676;-83
2022/08/13 06:45:11;;;;;;;1.20;1.10;;;18.30;62.50;;;;;;5086899;28;20965;-84
2022/08/13 06:47:39;;;;;;;1.70;1.57;;;18.30;61.80;;;;;;5081897;28;20621;-84
2022/08/13 06:50:10;;;;;;;1.40;1.20;;;18.30;60.80;;;;;;5077761;28;20668;-83
2022/08/13 06:52:38;;;;;;;1.87;1.77;;;18.30;61.20;;;;;;5077121;28;20620;-82
2022/08/13 06:55:07;;;;;;;1.90;1.50;;;18.30;61.70;;;;;;5084602;28;20616;-83
2022/08/13 06:57:37;;;;;;;1.90;1.80;;;18.60;61.10;;;;;;5065711;28;20645;-82
2022/08/13 07:00:09;;;;;;;2.50;2.30;;;18.50;61.30;;;;;;5066989;28;20731;-83
2022/08/13 07:02:37;;;;;;;2.10;1.90;;;18.70;61.40;;;;;;5068177;28;20620;-84
2022/08/13 07:05:05;;;;;;;1.90;1.80;;;18.80;61.40;;;;;;5067301;28;20621;-85
2022/08/13 07:07:33;;;;;;;1.70;1.60;;;19.10;59.80;;;;;;5085832;28;20621;-85
2022/08/13 07:10:01;;;;;;;2.10;1.90;;;19.20;59.40;;;;;;5086044;28;21120;-84
2022/08/13 07:12:30;;;;;;;1.90;1.80;;;19.20;59.20;;;;;;5067332;28;20624;-84
2022/08/13 07:14:58;;;;;;;1.30;1.20;;;19.10;59.30;;;;;;5070479;28;20664;-84
2022/08/13 07:17:27;;;;;;;1.90;1.80;;;19.10;59.50;;;;;;5067123;28;20716;-84
2022/08/13 07:19:56;;;;;;;2.07;1.60;;;19.10;59.30;;;;;;5080884;28;20990;-83
2022/08/13 07:22:23;;;;;;;1.77;1.67;;;19.30;58.80;;;;;;5083513;28;20648;-83
2022/08/13 07:24:50;;;;;;;1.70;1.60;;;19.50;58.80;;;;;;5080982;28;20703;-84
2022/08/13 07:27:17;;;;;;;1.47;1.37;;;19.50;58.90;;;;;;5068604;28;20636;-85
2022/08/13 07:29:49;;;;;;;2.20;2.07;;;19.80;58.40;;;;;;5067764;28;20956;-83
2022/08/13 07:32:17;;;;;;;6.57;1.77;;;19.90;57.90;;;;;;5085700;28;20624;-83
2022/08/13 07:34:45;;;;;;;2.93;1.53;;;19.90;58.20;;;;;;5074568;28;20670;-85
2022/08/13 07:37:19;;;;;;;1.47;1.37;;;19.90;57.90;;;;;;5067865;28;20675;-85
2022/08/13 07:39:46;;;;;;;2.13;1.93;;;19.80;58.00;;;;;;5085568;28;21198;-85
2022/08/13 07:42:15;;;;;;;1.87;1.77;;;19.80;58.20;;;;;;5070754;28;20617;-85
2022/08/13 07:44:42;;;;;;;1.60;1.50;;;19.90;58.30;;;;;;5077567;28;20728;-83
2022/08/13 07:47:13;;;;;;;1.93;1.83;;;20.10;58.00;;;;;;5070699;28;20629;-84
2022/08/13 07:49:44;;;;;;;1.57;1.47;;;20.50;57.60;;;;;;5086971;28;20629;-83
2022/08/13 07:52:13;;;;;;;2.17;2.00;;;20.70;57.50;;;;;;5074388;28;20657;-84
2022/08/13 07:54:40;;;;;;;1.97;1.87;;;20.80;56.50;;;;;;5071970;28;20639;-85
2022/08/13 07:57:09;;;;;;;2.00;1.77;;;20.60;56.80;;;;;;5077792;28;21345;-83
2022/08/13 07:59:36;;;;;;;4.50;2.10;;;20.60;56.80;;;;;;5069767;28;20659;-84
2022/08/13 08:02:05;;;;;;;1.70;1.60;;;20.50;57.00;;;;;;5072966;28;20843;-83
2022/08/13 08:04:35;;;;;;;1.93;1.83;;;20.60;56.50;;;;;;5085153;28;20653;-83
2022/08/13 08:07:06;;;;;;;2.00;1.80;;;20.60;56.50;;;;;;5086184;28;20624;-85
2022/08/13 08:09:34;;;;;;;1.87;1.73;;;20.70;56.90;;;;;;5067446;28;20688;-85
2022/08/13 08:14:49;;;;;;;5.50;2.17;;;21.50;56.40;;;;;;5078497;28;20643;-83
2022/08/13 08:17:16;;;;;;;1.77;1.63;;;21.80;55.20;;;;;;5086670;28;20621;-81
2022/08/13 08:19:43;;;;;;;2.13;1.80;;;22.10;55.40;;;;;;5086082;28;20734;-81
2022/08/13 08:22:12;;;;;;;2.40;2.20;;;22.30;55.20;;;;;;5086365;28;20616;-82
2022/08/13 08:24:39;;;;;;;1.90;1.80;;;22.30;53.10;;;;;;5087077;28;20656;-84
2022/08/13 08:27:10;;;;;;;1.97;1.80;;;22.30;53.30;;;;;;5090404;28;20639;-82
2022/08/13 08:29:40;;;;;;;2.07;1.83;;;22.50;52.80;;;;;;5090703;28;20617;-84
2022/08/13 08:32:08;;;;;;;2.13;2.00;;;22.70;53.00;;;;;;5091002;28;20617;-83
2022/08/13 08:34:37;;;;;;;1.57;1.47;;;22.80;53.30;;;;;;5081255;28;20621;-82
2022/08/13 08:37:04;;;;;;;2.00;1.90;;;22.90;53.70;;;;;;5070601;28;20728;-82
2022/08/13 08:42:40;;;;;;;1.77;1.67;;;23.20;52.40;;;;;;5086541;28;20624;-82
2022/08/13 08:45:13;;;;;;;1.90;1.80;;;23.10;53.30;;;;;;5090778;28;20727;-83
2022/08/13 08:47:42;;;;;;;1.83;1.73;;;23.30;51.90;;;;;;5090113;28;21264;-82
2022/08/13 08:50:10;;;;;;;2.47;2.27;;;23.20;52.30;;;;;;5090514;28;20652;-82
2022/08/13 08:55:25;;;;;;;1.73;1.63;;;23.40;52.20;;;;;;5090643;28;21255;-83
2022/08/13 08:57:52;;;;;;;1.87;1.77;;;23.40;51.50;;;;;;5090581;28;20637;-82
2022/08/13 09:00:20;;;;;;;2.53;2.30;;;23.30;52.20;;;;;;5090162;28;20624;-81
2022/08/13 09:02:50;;;;;;;2.10;2.00;;;23.10;52.80;;;;;;5089682;28;20663;-84
2022/08/13 09:05:20;;;;;;;1.80;1.70;;;23.20;51.60;;;;;;5090448;28;20629;-83
2022/08/13 09:07:47;;;;;;;2.20;2.00;;;23.30;51.70;;;;;;5090466;28;20631;-81
2022/08/13 09:10:16;;;;;;;2.53;2.33;;;23.30;51.90;;;;;;5090106;28;20648;-81
2022/08/13 09:12:46;;;;;;;2.47;2.27;;;23.20;52.70;;;;;;5089356;28;20638;-82
2022/08/13 09:15:17;;;;;;;1.80;1.70;;;23.30;53.20;;;;;;5090328;28;20611;-81
2022/08/13 09:17:45;;;;;;;2.83;2.17;;;23.60;52.40;;;;;;5090475;28;20628;-82
2022/08/13 09:20:15;;;;;;;2.10;1.70;;;23.70;51.90;;;;;;5090178;28;20624;-83
2022/08/13 09:22:44;;;;;;;2.10;1.80;;;23.70;52.10;;;;;;5089800;28;20723;-81
2022/08/13 09:25:14;;;;;;;2.13;1.87;;;23.70;52.10;;;;;;5089422;28;20631;-84
2022/08/13 09:27:43;;;;;;;1.23;1.20;;;23.90;50.70;;;;;;5090146;28;20727;-83
2022/08/13 09:30:13;;;;;;;1.80;1.57;;;23.90;50.20;;;;;;5089888;28;20617;-83
2022/08/13 09:32:40;;;;;;;1.70;1.60;;;23.90;52.10;;;;;;5089772;28;20698;-81
2022/08/13 09:35:08;;;;;;;2.17;2.07;;;23.90;51.90;;;;;;5076005;28;20629;-83
2022/08/13 09:37:37;;;;;;;1.53;1.43;;;23.90;51.60;;;;;;5068188;28;20625;-83
2022/08/13 09:40:06;;;;;;;1.80;1.70;;;23.80;52.20;;;;;;5069945;28;20613;-81
2022/08/13 09:42:37;;;;;;;2.03;1.93;;;23.90;52.60;;;;;;5087850;28;20624;-79
2022/08/13 09:45:06;;;;;;;1.80;1.70;;;24.20;52.70;;;;;;5089422;28;20616;-82
2022/08/13 09:47:34;;;;;;;2.50;2.30;;;24.10;52.20;;;;;;5089432;28;20724;-82
2022/08/13 09:50:01;;;;;;;1.60;1.50;;;24.70;50.40;;;;;;5089609;28;21218;-83
2022/08/13 09:52:28;;;;;;;1.70;1.60;;;25.00;50.40;;;;;;5088949;28;20636;-83
2022/08/13 09:54:57;;;;;;;1.87;1.77;;;25.10;48.80;;;;;;5089652;28;20621;-82
2022/08/13 09:57:25;;;;;;;1.90;1.80;;;25.20;49.30;;;;;;5089369;28;20743;-82
2022/08/13 09:59:53;;;;;;;1.90;1.73;;;25.40;48.90;;;;;;5089341;28;20736;-82
2022/08/13 10:02:21;;;;;;;2.17;2.07;;;25.60;48.80;;;;;;5088719;28;20624;-84
2022/08/13 10:04:52;;;;;;;2.17;2.07;;;25.70;47.40;;;;;;5088275;28;20756;-82
2022/08/13 10:07:19;;;;;;;1.70;1.60;;;25.50;47.90;;;;;;5089594;28;20707;-82
2022/08/13 10:09:46;;;;;;;1.77;1.67;;;25.30;48.60;;;;;;5089017;28;20623;-84
2022/08/13 10:12:13;;;;;;;1.90;1.80;;;25.50;47.60;;;;;;5088760;28;20715;-85
2022/08/13 10:14:41;;;;;;;1.80;1.70;;;25.50;47.70;;;;;;5088803;28;20621;-83
2022/08/13 10:17:08;;;;;;;1.90;1.80;;;25.50;47.40;;;;;;5088996;28;21077;-83
2022/08/13 10:19:35;;;;;;;1.90;1.80;;;25.80;46.20;;;;;;5088878;28;20613;-83
2022/08/13 10:22:03;;;;;;;1.70;1.60;;;25.80;46.50;;;;;;5088835;28;20708;-82
2022/08/13 10:24:30;;;;;;;1.77;1.67;;;25.80;46.90;;;;;;5088443;28;20717;-84
2022/08/13 10:26:57;;;;;;;1.83;1.73;;;25.90;47.00;;;;;;5089120;28;20617;-82
2022/08/13 10:29:24;;;;;;;1.60;1.50;;;25.90;46.10;;;;;;5088640;28;20732;-85
2022/08/13 10:31:51;;;;;;;1.80;1.70;;;25.80;45.30;;;;;;5088369;28;20648;-84
2022/08/13 10:34:22;;;;;;;1.53;1.43;;;25.80;45.80;;;;;;5081602;28;20652;-81
2022/08/13 10:36:49;;;;;;;1.63;1.53;;;25.80;45.40;;;;;;5068642;28;20614;-82
2022/08/13 10:39:17;;;;;;;1.80;1.70;;;25.80;46.50;;;;;;5068443;28;21168;-83
2022/08/13 10:41:44;;;;;;;1.57;1.47;;;25.60;47.10;;;;;;5080288;28;20732;-83
2022/08/13 10:44:13;;;;;;;1.47;1.37;;;25.70;46.60;;;;;;5087863;28;20732;-84
2022/08/13 10:46:41;;;;;;;1.93;1.47;;;25.70;47.00;;;;;;5088083;28;20616;-83
2022/08/13 10:49:10;;;;;;;1.50;1.40;;;25.40;46.80;;;;;;5088946;28;20727;-82
2022/08/13 10:51:37;;;;;;;1.63;1.53;;;25.40;46.90;;;;;;5088860;28;20620;-84
2022/08/13 10:54:05;;;;;;;1.70;1.60;;;25.50;46.20;;;;;;5087862;28;20610;-83
2022/08/13 10:56:34;;;;;;;1.50;1.40;;;25.50;45.80;;;;;;5088236;28;20686;-86
2022/08/13 10:59:03;;;;;;;1.50;1.40;;;25.60;45.70;;;;;;5087612;28;20720;-84
2022/08/13 11:01:31;;;;;;;2.03;1.53;;;25.60;45.30;;;;;;5088032;28;20716;-81
2022/08/13 11:04:01;;;;;;;1.57;1.37;;;25.70;46.70;;;;;;5087724;28;20693;-84
2022/08/13 11:06:28;;;;;;;2.03;1.67;;;26.10;46.00;;;;;;5087960;28;21579;-84
2022/08/13 11:08:57;;;;;;;1.37;1.30;;;26.60;44.10;;;;;;5088069;28;20659;-85
2022/08/13 11:11:25;;;;;;;1.60;1.50;;;27.10;44.30;;;;;;5087702;28;20632;-82
2022/08/13 11:13:53;;;;;;;1.67;1.57;;;27.50;43.80;;;;;;5087754;28;20704;-83
2022/08/13 11:19:15;;;;;;;2.00;1.80;;;28.10;43.70;;;;;;5039444;28;20686;-84
2022/08/13 11:21:44;;;;;;;1.47;1.37;;;28.70;42.40;;;;;;5087836;28;20613;-82
2022/08/13 11:24:11;;;;;;;2.13;2.03;;;29.00;42.40;;;;;;5087933;28;20656;-85
2022/08/13 11:26:38;;;;;;;2.00;1.73;;;28.90;40.80;;;;;;5088002;28;20724;-84
2022/08/13 11:29:07;;;;;;;1.60;1.50;;;28.90;41.80;;;;;;5087926;28;20655;-83
2022/08/13 11:31:34;;;;;;;1.60;1.50;;;29.30;39.80;;;;;;5087579;28;20620;-84
2022/08/13 11:34:00;;;;;;;1.43;1.33;;;29.40;40.20;;;;;;5082736;28;20657;-83
2022/08/13 11:36:27;;;;;;;1.97;1.87;;;29.50;40.90;;;;;;5066818;28;20708;-84
2022/08/13 11:38:55;;;;;;;2.93;2.20;;;29.90;40.50;;;;;;5067818;28;21418;-84
2022/08/13 11:41:21;;;;;;;1.63;1.53;;;30.10;39.80;;;;;;5076331;28;20709;-86
2022/08/13 11:43:52;;;;;;;1.50;1.40;;;30.40;39.70;;;;;;5087856;28;20640;-83
2022/08/13 11:46:21;;;;;;;1.60;1.50;;;30.50;38.20;;;;;;5087716;28;20941;-83
2022/08/13 11:48:49;;;;;;;1.30;1.30;;;30.80;37.70;;;;;;5087673;28;20769;-84
2022/08/13 11:51:16;;;;;;;1.87;1.77;;;30.90;37.40;;;;;;5087413;28;20674;-83
2022/08/13 11:53:43;;;;;;;1.70;1.60;;;31.20;37.40;;;;;;5087596;28;20677;-83
2022/08/13 11:56:10;;;;;;;2.23;2.13;;;31.70;37.40;;;;;;5087660;28;20650;-84
2022/08/13 11:58:37;;;;;;;1.67;1.57;;;32.20;36.70;;;;;;5087818;28;20663;-84
2022/08/13 12:01:06;;;;;;;1.60;1.50;;;32.80;36.30;;;;;;5089998;28;20625;-83
2022/08/13 12:03:35;;;;;;;2.13;2.03;;;33.30;35.80;;;;;;5090447;28;20714;-85
2022/08/13 12:06:02;;;;;;;1.20;1.20;;;33.90;34.80;;;;;;5091379;28;20627;-84
2022/08/13 12:08:29;;;;;;;1.43;1.37;;;34.50;34.70;;;;;;5091110;28;21053;-86
2022/08/13 12:10:56;;;;;;;2.60;1.77;;;35.30;33.90;;;;;;5092016;28;20701;-83
2022/08/13 12:13:23;;;;;;;1.80;1.70;;;35.60;32.50;;;;;;5092335;28;20608;-86
2022/08/13 12:15:51;;;;;;;2.00;1.90;;;35.90;32.30;;;;;;5091761;28;20620;-84
2022/08/13 12:18:19;;;;;;;1.83;1.73;;;36.40;32.40;;;;;;5091121;28;20658;-86
2022/08/13 12:20:47;;;;;;;1.87;1.77;;;36.30;31.50;;;;;;5091746;28;20731;-83
2022/08/13 12:23:14;;;;;;;1.97;1.60;;;36.40;32.90;;;;;;5090864;28;20695;-86
2022/08/13 12:25:42;;;;;;;1.90;1.80;;;37.10;31.30;;;;;;5090972;28;20332;-87
2022/08/13 12:28:16;;;;;;;1.97;1.80;;;37.50;30.50;;;;;;5091106;28;20289;-85
2022/08/13 12:30:44;;;;;;;1.52;1.42;;;38.20;30.10;;;;;;5090799;28;20288;-84
2022/08/13 12:33:11;;;;;;;2.23;2.13;;;36.80;30.90;;;;;;5091311;28;20221;-84
2022/08/13 12:35:38;;;;;;;2.07;1.87;;;36.70;31.10;;;;;;5072974;28;20218;-87
2022/08/13 12:38:11;;;;;;;1.60;1.50;;;37.50;30.60;;;;;;5070834;28;20245;-84
2022/08/13 12:40:38;;;;;;;1.53;1.43;;;37.50;30.90;;;;;;5073257;28;20293;-86
2022/08/13 12:43:06;;;;;;;1.60;1.35;;;37.50;30.20;;;;;;5090437;28;20219;-84
2022/08/13 12:45:34;;;;;;;1.60;1.60;;;37.70;30.90;;;;;;5091014;28;20643;-86
2022/08/13 12:48:05;;;;;;;1.48;1.38;;;38.30;29.70;;;;;;5090917;28;20226;-85
2022/08/13 12:50:33;;;;;;;1.73;1.63;;;38.60;29.60;;;;;;5090653;28;20206;-84
2022/08/13 12:52:59;;;;;;;1.97;1.77;;;37.80;29.50;;;;;;5090701;28;20201;-84
2022/08/13 12:55:28;;;;;;;2.03;1.93;;;36.40;30.20;;;;;;5090723;28;20202;-86
2022/08/13 12:57:55;;;;;;;2.50;1.70;;;36.10;30.00;;;;;;5090271;28;20740;-84
2022/08/13 13:00:22;;;;;;;1.80;1.70;;;35.70;30.40;;;;;;5090530;28;20624;-83
2022/08/13 13:02:49;;;;;;;1.70;1.60;;;35.10;31.20;;;;;;5090232;28;20737;-87
2022/08/13 13:05:16;;;;;;;1.70;1.60;;;34.20;31.20;;;;;;5090653;28;20663;-83
2022/08/13 13:07:43;;;;;;;2.37;2.17;;;34.20;31.10;;;;;;5090362;28;20723;-84
2022/08/13 13:10:10;;;;;;;1.70;1.60;;;33.60;32.30;;;;;;5089847;28;20623;-85
2022/08/13 13:12:39;;;;;;;1.73;1.63;;;33.30;32.50;;;;;;5090037;28;20605;-84
2022/08/13 13:15:07;;;;;;;1.70;1.60;;;33.90;32.60;;;;;;5090369;28;20659;-85